createdAt,value
2022-09-14T00:00:07.167Z,85.99
2022-09-14T00:00:42.521Z,86.06
2022-09-14T00:01:25.873Z,85.70
2022-09-14T00:01:59.677Z,86.05
2022-09-14T00:02:34.760Z,86.10
2022-09-14T00:03:07.049Z,85.61
2022-09-14T00:03:39.735Z,86.09
2022-09-14T00:04:16.961Z,85.66
2022-09-14T00:04:49.166Z,85.93
2022-09-14T00:05:21.414Z,86.00
2022-09-14T00:05:56.089Z,86.02
2022-09-14T00:06:29.571Z,86.17
2022-09-14T00:07:01.706Z,86.14
2022-09-14T00:07:36.489Z,86.02
2022-09-14T00:08:08.951Z,86.04
2022-09-14T00:08:41.722Z,86.59
2022-09-14T00:09:19.091Z,86.53
2022-09-14T00:09:51.906Z,86.26
2022-09-14T00:10:24.061Z,86.57
2022-09-14T00:10:58.722Z,86.27
2022-09-14T00:11:32.291Z,86.52
2022-09-14T00:12:04.467Z,86.57
2022-09-14T00:12:41.853Z,86.42
2022-09-14T00:13:15.163Z,86.22
2022-09-14T00:13:48.142Z,86.60
2022-09-14T00:14:23.423Z,86.34
2022-09-14T00:14:55.498Z,86.38
2022-09-14T00:15:27.663Z,86.33
2022-09-14T00:16:06.659Z,86.19
2022-09-14T00:16:40.811Z,86.47
2022-09-14T00:17:13.075Z,86.02
2022-09-14T00:17:47.865Z,86.33
2022-09-14T00:18:19.970Z,86.27
2022-09-14T00:18:53.358Z,86.42
2022-09-14T00:19:29.920Z,86.48
2022-09-14T00:20:02.632Z,86.75
2022-09-14T00:20:34.931Z,86.75
2022-09-14T00:21:09.366Z,86.71
2022-09-14T00:21:44.542Z,86.67
2022-09-14T00:22:16.712Z,86.79
2022-09-14T00:22:48.817Z,86.63
2022-09-14T00:23:23.477Z,86.60
2022-09-14T00:23:55.800Z,86.67
2022-09-14T00:24:30.858Z,86.84
2022-09-14T00:25:05.578Z,86.52
2022-09-14T00:25:37.803Z,86.50
2022-09-14T00:26:13.106Z,86.34
2022-09-14T00:26:47.833Z,86.68
2022-09-14T00:27:19.963Z,86.79
2022-09-14T00:27:55.765Z,86.94
2022-09-14T00:28:30.443Z,86.86
2022-09-14T00:29:04.981Z,86.73
2022-09-14T00:29:37.236Z,86.79
2022-09-14T00:30:13.247Z,86.96
2022-09-14T00:30:45.408Z,86.88
2022-09-14T00:31:18.432Z,86.63
2022-09-14T00:31:53.235Z,87.13
2022-09-14T00:32:25.457Z,87.16
2022-09-14T00:32:57.679Z,86.91
2022-09-14T00:33:32.540Z,86.79
2022-09-14T00:34:06.452Z,86.92
2022-09-14T00:34:38.697Z,86.74
2022-09-14T00:35:13.390Z,86.84
2022-09-14T00:35:45.538Z,86.86
2022-09-14T00:36:20.547Z,87.32
2022-09-14T00:36:56.006Z,87.01
2022-09-14T00:37:28.078Z,87.29
2022-09-14T00:38:00.171Z,87.33
2022-09-14T00:38:35.850Z,87.41
2022-09-14T00:39:08.871Z,87.64
2022-09-14T00:39:43.969Z,87.61
2022-09-14T00:40:16.346Z,87.44
2022-09-14T00:40:57.763Z,87.34
2022-09-14T00:41:34.918Z,87.61
2022-09-14T00:42:07.305Z,87.72
2022-09-14T00:42:39.591Z,87.81
2022-09-14T00:43:18.540Z,87.82
2022-09-14T00:44:03.053Z,87.90
2022-09-14T00:45:14.350Z,87.48
2022-09-14T00:45:46.905Z,87.74
2022-09-14T00:46:19.303Z,87.57
2022-09-14T00:46:56.385Z,87.91
2022-09-14T00:47:30.968Z,87.93
2022-09-14T00:48:03.077Z,87.76
2022-09-14T00:48:37.859Z,87.37
2022-09-14T00:49:13.588Z,87.33
2022-09-14T00:49:45.941Z,87.54
2022-09-14T00:50:21.342Z,87.42
2022-09-14T00:50:54.663Z,87.19
2022-09-14T00:51:29.448Z,87.55
2022-09-14T00:52:09.025Z,87.19
2022-09-14T00:52:43.790Z,87.31
2022-09-14T00:53:18.494Z,87.63
2022-09-14T00:53:50.957Z,87.44
2022-09-14T00:54:23.397Z,87.03
2022-09-14T00:54:57.720Z,87.09
2022-09-14T00:55:32.503Z,87.40
2022-09-14T00:56:04.830Z,87.32
2022-09-14T00:56:37.669Z,87.44
2022-09-14T00:57:10.766Z,87.83
2022-09-14T00:57:47.846Z,87.79
2022-09-14T00:58:22.688Z,87.86
2022-09-14T00:58:58.267Z,87.87
2022-09-14T00:59:33.736Z,87.68
2022-09-14T01:00:12.902Z,88.19
2022-09-14T01:00:45.034Z,87.66
2022-09-14T01:01:17.569Z,87.94
2022-09-14T01:01:53.117Z,87.69
2022-09-14T01:02:28.276Z,87.68
2022-09-14T01:03:03.318Z,87.53
2022-09-14T01:03:35.407Z,87.55
2022-09-14T01:04:07.534Z,87.68
2022-09-14T01:04:39.852Z,87.37
2022-09-14T01:05:15.686Z,87.70
2022-09-14T01:06:00.941Z,87.37
2022-09-14T01:06:42.108Z,87.36
2022-09-14T01:07:26.717Z,87.61
2022-09-14T01:08:13.044Z,87.47
2022-09-14T01:08:59.813Z,87.34
2022-09-14T01:09:40.653Z,87.65
2022-09-14T01:10:26.971Z,87.52
2022-09-14T01:11:12.107Z,87.80
2022-09-14T01:11:53.361Z,87.27
2022-09-14T01:12:37.336Z,87.28
2022-09-14T01:13:23.070Z,87.40
2022-09-14T01:14:09.664Z,87.74
2022-09-14T01:14:48.795Z,87.47
2022-09-14T01:15:26.997Z,87.59
2022-09-14T01:16:11.845Z,87.47
2022-09-14T01:16:50.862Z,87.73
2022-09-14T01:17:28.811Z,87.45
2022-09-14T01:18:09.937Z,88.13
2022-09-14T01:18:46.755Z,87.89
2022-09-14T01:19:28.410Z,87.68
2022-09-14T01:20:18.547Z,87.69
2022-09-14T01:20:57.125Z,87.77
2022-09-14T01:21:33.186Z,87.90
2022-09-14T01:22:13.752Z,87.99
2022-09-14T01:22:51.322Z,87.54
2022-09-14T01:23:32.979Z,88.04
2022-09-14T01:24:15.096Z,87.98
2022-09-14T01:24:52.865Z,87.72
2022-09-14T01:25:56.020Z,87.52
2022-09-14T01:27:00.907Z,87.76
2022-09-14T01:27:41.893Z,87.49
2022-09-14T01:28:20.761Z,87.69
2022-09-14T01:28:57.229Z,87.45
2022-09-14T01:29:36.788Z,87.77
2022-09-14T01:30:11.719Z,87.59
2022-09-14T01:30:45.510Z,87.36
2022-09-14T01:31:24.363Z,87.63
2022-09-14T01:32:02.757Z,87.08
2022-09-14T01:32:45.156Z,87.36
2022-09-14T01:33:21.863Z,87.39
2022-09-14T01:34:00.082Z,87.02
2022-09-14T01:34:39.433Z,87.36
2022-09-14T01:35:16.272Z,87.36
2022-09-14T01:35:54.478Z,87.50
2022-09-14T01:36:32.952Z,87.29
2022-09-14T01:37:13.204Z,87.39
2022-09-14T01:37:47.829Z,87.57
2022-09-14T01:38:27.124Z,87.60
2022-09-14T01:39:00.204Z,87.60
2022-09-14T01:39:35.083Z,87.68
2022-09-14T01:40:17.220Z,87.26
2022-09-14T01:40:51.341Z,87.13
2022-09-14T01:41:29.356Z,87.32
2022-09-14T01:42:05.699Z,87.09
2022-09-14T01:42:43.061Z,87.30
2022-09-14T01:43:20.225Z,87.08
2022-09-14T01:44:00.155Z,87.36
2022-09-14T01:44:35.776Z,87.03
2022-09-14T01:45:12.996Z,86.89
2022-09-14T01:45:52.154Z,86.89
2022-09-14T01:46:29.836Z,87.28
2022-09-14T01:47:13.986Z,87.05
2022-09-14T01:47:52.006Z,87.50
2022-09-14T01:48:31.002Z,87.48
2022-09-14T01:49:07.371Z,87.28
2022-09-14T01:49:45.542Z,87.43
2022-09-14T01:50:31.393Z,87.07
2022-09-14T01:51:10.193Z,87.05
2022-09-14T01:51:48.905Z,87.16
2022-09-14T01:52:26.116Z,87.30
2022-09-14T01:53:05.728Z,86.89
2022-09-14T01:53:44.617Z,87.00
2022-09-14T01:54:23.943Z,86.96
2022-09-14T01:55:01.766Z,87.56
2022-09-14T01:55:43.833Z,87.22
2022-09-14T01:56:20.547Z,86.95
2022-09-14T01:56:59.769Z,87.51
2022-09-14T01:57:39.399Z,87.11
2022-09-14T01:58:20.191Z,87.05
2022-09-14T01:59:00.771Z,87.45
2022-09-14T01:59:37.777Z,86.95
2022-09-14T02:00:16.442Z,86.91
2022-09-14T02:00:54.070Z,87.03
2022-09-14T02:01:33.858Z,86.90
2022-09-14T02:02:11.491Z,87.19
2022-09-14T02:02:52.670Z,87.12
2022-09-14T02:03:31.618Z,87.05
2022-09-14T02:04:08.740Z,87.15
2022-09-14T02:04:49.442Z,87.44
2022-09-14T02:05:28.481Z,87.34
2022-09-14T02:06:07.715Z,87.32
2022-09-14T02:06:45.940Z,87.16
2022-09-14T02:07:19.345Z,87.18
2022-09-14T02:07:51.606Z,86.91
2022-09-14T02:08:29.253Z,87.22
2022-09-14T02:09:02.097Z,87.13
2022-09-14T02:09:34.518Z,87.22
2022-09-14T02:10:12.728Z,87.49
2022-09-14T02:10:44.904Z,87.46
2022-09-14T02:11:17.044Z,87.30
2022-09-14T02:11:52.019Z,87.22
2022-09-14T02:12:24.541Z,87.22
2022-09-14T02:12:57.018Z,87.24
2022-09-14T02:13:34.571Z,87.31
2022-09-14T02:14:07.293Z,87.41
2022-09-14T02:14:39.447Z,87.36
2022-09-14T02:15:16.467Z,86.87
2022-09-14T02:15:49.410Z,87.34
2022-09-14T02:16:23.874Z,87.21
2022-09-14T02:16:58.997Z,87.23
2022-09-14T02:17:31.514Z,86.99
2022-09-14T02:18:04.322Z,87.10
2022-09-14T02:18:40.781Z,86.99
2022-09-14T02:19:13.914Z,87.06
2022-09-14T02:19:52.496Z,87.00
2022-09-14T02:20:34.213Z,86.60
2022-09-14T02:21:12.448Z,86.90
2022-09-14T02:21:44.689Z,86.95
2022-09-14T02:22:19.370Z,86.67
2022-09-14T02:22:52.343Z,87.04
2022-09-14T02:23:27.897Z,86.82
2022-09-14T02:24:04.641Z,86.78
2022-09-14T02:24:37.100Z,86.71
2022-09-14T02:25:09.558Z,86.89
2022-09-14T02:25:44.897Z,87.07
2022-09-14T02:26:19.159Z,86.73
2022-09-14T02:26:52.966Z,86.77
2022-09-14T02:27:28.638Z,86.79
2022-09-14T02:28:01.026Z,86.81
2022-09-14T02:28:35.880Z,86.60
2022-09-14T02:29:10.735Z,86.83
2022-09-14T02:29:42.931Z,86.57
2022-09-14T02:30:16.652Z,86.56
2022-09-14T02:31:07.203Z,86.75
2022-09-14T02:31:53.199Z,87.12
2022-09-14T02:32:38.169Z,87.20
2022-09-14T02:33:16.267Z,86.84
2022-09-14T02:33:56.951Z,86.76
2022-09-14T02:34:38.236Z,87.06
2022-09-14T02:35:22.029Z,86.71
2022-09-14T02:35:56.708Z,86.76
2022-09-14T02:36:41.512Z,86.74
2022-09-14T02:37:18.444Z,86.73
2022-09-14T02:38:00.093Z,86.63
2022-09-14T02:38:40.729Z,86.65
2022-09-14T02:39:22.541Z,86.96
2022-09-14T02:40:12.522Z,86.63
2022-09-14T02:40:51.869Z,86.97
2022-09-14T02:41:45.005Z,86.95
2022-09-14T02:42:26.739Z,86.69
2022-09-14T02:43:06.543Z,86.63
2022-09-14T02:43:50.723Z,87.05
2022-09-14T02:44:39.131Z,87.04
2022-09-14T02:45:21.824Z,86.66
2022-09-14T02:46:04.460Z,86.68
2022-09-14T02:46:43.071Z,87.36
2022-09-14T02:47:21.676Z,87.09
2022-09-14T02:48:06.513Z,86.90
2022-09-14T02:48:44.682Z,86.61
2022-09-14T02:49:25.542Z,86.79
2022-09-14T02:50:08.066Z,87.06
2022-09-14T02:50:48.557Z,86.76
2022-09-14T02:51:30.067Z,86.61
2022-09-14T02:52:07.892Z,86.78
2022-09-14T02:52:46.403Z,86.59
2022-09-14T02:53:27.356Z,86.91
2022-09-14T02:54:04.836Z,86.51
2022-09-14T02:54:41.554Z,86.82
2022-09-14T02:55:21.168Z,86.60
2022-09-14T02:55:59.279Z,86.33
2022-09-14T02:56:33.318Z,86.48
2022-09-14T02:57:08.057Z,86.71
2022-09-14T02:58:05.266Z,86.55
2022-09-14T02:58:44.134Z,86.97
2022-09-14T02:59:16.821Z,86.53
2022-09-14T02:59:48.936Z,87.04
2022-09-14T03:00:24.195Z,86.88
2022-09-14T03:00:56.438Z,86.88
2022-09-14T03:01:31.386Z,86.88
2022-09-14T03:02:03.875Z,86.47
2022-09-14T03:02:36.562Z,86.38
2022-09-14T03:03:11.773Z,86.55
2022-09-14T03:03:46.495Z,86.28
2022-09-14T03:04:18.625Z,86.37
2022-09-14T03:04:50.985Z,86.36
2022-09-14T03:05:25.758Z,86.24
2022-09-14T03:05:57.971Z,86.55
2022-09-14T03:06:32.930Z,86.26
2022-09-14T03:07:05.234Z,86.40
2022-09-14T03:07:37.311Z,86.21
2022-09-14T03:08:13.155Z,86.48
2022-09-14T03:08:45.489Z,86.28
2022-09-14T03:09:17.727Z,85.92
2022-09-14T03:09:52.368Z,86.19
2022-09-14T03:10:24.618Z,85.92
2022-09-14T03:10:57.031Z,86.03
2022-09-14T03:11:31.722Z,85.92
2022-09-14T03:12:04.813Z,85.86
2022-09-14T03:12:38.414Z,85.70
2022-09-14T03:13:13.740Z,85.87
2022-09-14T03:13:48.659Z,86.20
2022-09-14T03:14:21.453Z,86.16
2022-09-14T03:14:56.130Z,86.17
2022-09-14T03:15:28.800Z,86.26
2022-09-14T03:16:05.764Z,86.31
2022-09-14T03:16:44.815Z,86.06
2022-09-14T03:17:17.008Z,86.16
2022-09-14T03:17:50.163Z,86.07
2022-09-14T03:18:25.080Z,86.30
2022-09-14T03:18:57.224Z,86.22
2022-09-14T03:19:29.324Z,86.12
2022-09-14T03:20:04.809Z,86.20
2022-09-14T03:20:37.343Z,86.18
2022-09-14T03:21:11.667Z,86.25
2022-09-14T03:21:46.334Z,85.97
2022-09-14T03:22:18.440Z,85.98
2022-09-14T03:22:50.936Z,85.80
2022-09-14T03:23:23.106Z,86.03
2022-09-14T03:23:58.053Z,86.27
2022-09-14T03:24:30.320Z,86.02
2022-09-14T03:25:02.465Z,86.16
2022-09-14T03:25:40.170Z,86.11
2022-09-14T03:26:14.898Z,85.70
2022-09-14T03:26:47.449Z,85.93
2022-09-14T03:27:22.332Z,86.14
2022-09-14T03:27:56.188Z,85.64
2022-09-14T03:28:28.306Z,86.19
2022-09-14T03:29:06.955Z,85.97
2022-09-14T03:29:39.031Z,86.04
2022-09-14T03:30:12.307Z,85.90
2022-09-14T03:30:47.544Z,86.05
2022-09-14T03:31:20.070Z,85.94
2022-09-14T03:31:53.126Z,85.82
2022-09-14T03:32:27.856Z,85.37
2022-09-14T03:33:00.933Z,85.26
2022-09-14T03:33:33.763Z,85.34
2022-09-14T03:34:08.473Z,85.30
2022-09-14T03:34:41.242Z,85.08
2022-09-14T03:35:14.350Z,85.25
2022-09-14T03:35:46.496Z,85.38
2022-09-14T03:36:22.682Z,85.20
2022-09-14T03:36:54.908Z,85.30
2022-09-14T03:37:27.787Z,85.62
2022-09-14T03:38:03.306Z,85.41
2022-09-14T03:38:35.517Z,85.42
2022-09-14T03:39:07.636Z,85.13
2022-09-14T03:39:42.327Z,85.21
2022-09-14T03:40:21.468Z,85.22
2022-09-14T03:40:54.134Z,84.92
2022-09-14T03:41:28.885Z,84.92
2022-09-14T03:42:00.973Z,84.99
2022-09-14T03:42:33.354Z,85.05
2022-09-14T03:43:09.076Z,85.13
2022-09-14T03:43:41.981Z,84.91
2022-09-14T03:44:16.807Z,84.97
2022-09-14T03:44:51.525Z,85.40
2022-09-14T03:45:23.722Z,84.92
2022-09-14T03:45:55.900Z,84.94
2022-09-14T03:46:31.051Z,85.08
2022-09-14T03:47:03.310Z,85.14
2022-09-14T03:47:35.428Z,84.82
2022-09-14T03:48:11.540Z,84.72
2022-09-14T03:48:44.499Z,84.93
2022-09-14T03:49:18.417Z,85.06
2022-09-14T03:49:53.655Z,85.06
2022-09-14T03:50:25.748Z,85.02
2022-09-14T03:51:00.577Z,84.65
2022-09-14T03:51:37.083Z,84.36
2022-09-14T03:52:09.194Z,84.45
2022-09-14T03:52:41.555Z,84.45
2022-09-14T03:53:16.332Z,84.42
2022-09-14T03:53:48.784Z,84.37
2022-09-14T03:54:20.965Z,84.12
2022-09-14T03:54:55.761Z,84.14
2022-09-14T03:55:27.995Z,84.10
2022-09-14T03:56:00.346Z,83.95
2022-09-14T03:56:35.152Z,84.17
2022-09-14T03:57:07.716Z,84.01
2022-09-14T03:57:39.855Z,84.12
2022-09-14T03:58:14.531Z,84.47
2022-09-14T03:58:48.591Z,84.47
2022-09-14T03:59:26.003Z,84.26
2022-09-14T03:59:58.147Z,84.03
2022-09-14T04:00:30.369Z,84.01
2022-09-14T04:01:09.740Z,84.26
2022-09-14T04:01:41.927Z,83.95
2022-09-14T04:02:14.426Z,84.17
2022-09-14T04:02:49.182Z,84.40
2022-09-14T04:03:21.420Z,83.94
2022-09-14T04:03:53.707Z,84.44
2022-09-14T04:04:28.410Z,84.22
2022-09-14T04:05:00.557Z,84.18
2022-09-14T04:05:32.649Z,84.34
2022-09-14T04:06:05.869Z,84.22
2022-09-14T04:06:40.587Z,84.03
2022-09-14T04:07:12.674Z,83.89
2022-09-14T04:07:44.997Z,84.11
2022-09-14T04:08:19.694Z,84.09
2022-09-14T04:08:51.786Z,83.82
2022-09-14T04:09:23.904Z,84.17
2022-09-14T04:09:59.017Z,83.80
2022-09-14T04:10:31.166Z,83.73
2022-09-14T04:11:08.267Z,83.87
2022-09-14T04:11:42.955Z,83.72
2022-09-14T04:12:15.074Z,83.66
2022-09-14T04:12:47.242Z,83.56
2022-09-14T04:13:19.869Z,83.75
2022-09-14T04:13:55.352Z,83.83
2022-09-14T04:14:30.287Z,83.67
2022-09-14T04:15:02.471Z,83.59
2022-09-14T04:15:37.147Z,83.54
2022-09-14T04:16:09.637Z,83.37
2022-09-14T04:16:43.286Z,83.73
2022-09-14T04:17:17.933Z,83.83
2022-09-14T04:17:50.181Z,83.79
2022-09-14T04:18:22.309Z,83.84
2022-09-14T04:18:57.240Z,83.80
2022-09-14T04:19:29.466Z,83.73
2022-09-14T04:20:01.776Z,83.76
2022-09-14T04:20:36.585Z,83.76
2022-09-14T04:21:17.825Z,83.69
2022-09-14T04:21:52.507Z,84.02
2022-09-14T04:22:24.785Z,83.75
2022-09-14T04:22:56.874Z,83.48
2022-09-14T04:23:31.833Z,83.61
2022-09-14T04:24:14.553Z,83.15
2022-09-14T04:24:50.649Z,83.34
2022-09-14T04:25:23.422Z,83.07
2022-09-14T04:25:55.655Z,83.60
2022-09-14T04:26:32.937Z,83.25
2022-09-14T04:27:05.083Z,83.57
2022-09-14T04:27:37.230Z,83.38
2022-09-14T04:28:20.035Z,83.40
2022-09-14T04:28:53.393Z,83.64
2022-09-14T04:29:30.656Z,83.67
2022-09-14T04:30:06.680Z,83.58
2022-09-14T04:30:38.821Z,83.85
2022-09-14T04:31:14.890Z,83.60
2022-09-14T04:31:47.043Z,83.85
2022-09-14T04:32:19.218Z,83.44
2022-09-14T04:32:57.231Z,83.78
2022-09-14T04:33:31.402Z,83.74
2022-09-14T04:34:03.568Z,83.53
2022-09-14T04:34:38.394Z,83.33
2022-09-14T04:35:10.472Z,83.38
2022-09-14T04:35:42.657Z,83.35
2022-09-14T04:36:17.953Z,83.60
2022-09-14T04:36:52.715Z,83.85
2022-09-14T04:37:24.911Z,83.59
2022-09-14T04:37:57.017Z,83.69
2022-09-14T04:38:32.165Z,83.45
2022-09-14T04:39:04.482Z,83.51
2022-09-14T04:39:36.811Z,83.56
2022-09-14T04:40:13.034Z,83.46
2022-09-14T04:40:45.281Z,83.31
2022-09-14T04:41:20.581Z,83.22
2022-09-14T04:41:55.315Z,83.34
2022-09-14T04:42:27.489Z,83.12
2022-09-14T04:42:59.643Z,83.04
2022-09-14T04:43:31.814Z,82.50
2022-09-14T04:44:06.501Z,82.70
2022-09-14T04:44:38.611Z,82.60
2022-09-14T04:45:13.908Z,82.59
2022-09-14T04:45:48.958Z,82.49
2022-09-14T04:46:23.789Z,82.33
2022-09-14T04:46:56.103Z,82.02
2022-09-14T04:47:32.643Z,82.29
2022-09-14T04:48:05.181Z,82.26
2022-09-14T04:48:37.590Z,81.95
2022-09-14T04:49:09.910Z,81.93
2022-09-14T04:49:44.563Z,81.69
2022-09-14T04:50:16.728Z,81.72
2022-09-14T04:50:48.945Z,81.62
2022-09-14T04:51:25.640Z,81.70
2022-09-14T04:51:57.791Z,82.04
2022-09-14T04:52:29.861Z,81.79
2022-09-14T04:53:05.527Z,81.86
2022-09-14T04:53:38.944Z,82.19
2022-09-14T04:54:17.949Z,81.90
2022-09-14T04:54:50.030Z,81.86
2022-09-14T04:55:22.120Z,81.82
2022-09-14T04:55:54.178Z,81.57
2022-09-14T04:56:30.410Z,81.71
2022-09-14T04:57:02.571Z,81.72
2022-09-14T04:57:34.666Z,81.50
2022-09-14T04:58:09.357Z,81.58
2022-09-14T04:58:47.175Z,81.58
2022-09-14T04:59:24.171Z,81.38
2022-09-14T04:59:56.320Z,81.51
2022-09-14T05:00:33.354Z,81.50
2022-09-14T05:01:08.562Z,81.65
2022-09-14T05:01:45.006Z,81.62
2022-09-14T05:02:17.324Z,81.69
2022-09-14T05:02:50.011Z,82.00
2022-09-14T05:03:22.198Z,81.44
2022-09-14T05:03:57.869Z,81.42
2022-09-14T05:04:29.966Z,81.71
2022-09-14T05:05:02.057Z,81.73
2022-09-14T05:05:40.048Z,81.90
2022-09-14T05:06:16.703Z,81.66
2022-09-14T05:06:51.422Z,81.70
2022-09-14T05:07:23.567Z,81.40
2022-09-14T05:07:55.667Z,81.70
2022-09-14T05:08:28.101Z,81.71
2022-09-14T05:09:04.220Z,81.49
2022-09-14T05:09:36.507Z,81.74
2022-09-14T05:10:12.044Z,81.36
2022-09-14T05:10:44.371Z,81.42
2022-09-14T05:11:20.444Z,81.51
2022-09-14T05:11:55.492Z,81.28
2022-09-14T05:12:28.090Z,81.20
2022-09-14T05:13:02.653Z,81.12
2022-09-14T05:13:38.197Z,81.19
2022-09-14T05:14:12.164Z,81.31
2022-09-14T05:14:44.249Z,81.27
2022-09-14T05:15:19.121Z,81.25
2022-09-14T05:15:54.140Z,81.00
2022-09-14T05:16:28.329Z,81.49
2022-09-14T05:17:04.589Z,81.46
2022-09-14T05:17:36.747Z,81.27
2022-09-14T05:18:08.878Z,81.16
2022-09-14T05:18:41.238Z,80.77
2022-09-14T05:19:18.340Z,80.63
2022-09-14T05:19:50.494Z,80.44
2022-09-14T05:20:22.762Z,80.69
2022-09-14T05:20:57.470Z,80.82
2022-09-14T05:21:31.395Z,80.60
2022-09-14T05:22:06.319Z,80.18
2022-09-14T05:22:38.514Z,80.50
2022-09-14T05:23:10.777Z,81.05
2022-09-14T05:23:46.054Z,80.58
2022-09-14T05:24:19.226Z,80.44
2022-09-14T05:24:53.910Z,80.19
2022-09-14T05:25:27.178Z,80.38
2022-09-14T05:26:00.176Z,80.63
2022-09-14T05:26:35.882Z,80.44
2022-09-14T05:27:08.302Z,80.43
2022-09-14T05:27:40.482Z,80.26
2022-09-14T05:28:15.195Z,80.45
2022-09-14T05:28:50.881Z,80.39
2022-09-14T05:29:22.957Z,80.50
2022-09-14T05:29:57.645Z,80.48
2022-09-14T05:30:31.658Z,80.52
2022-09-14T05:31:08.706Z,80.51
2022-09-14T05:31:43.611Z,80.29
2022-09-14T05:32:15.752Z,80.11
2022-09-14T05:32:47.870Z,79.89
2022-09-14T05:33:22.842Z,79.79
2022-09-14T05:33:55.427Z,80.04
2022-09-14T05:34:27.557Z,79.68
2022-09-14T05:35:02.240Z,80.01
2022-09-14T05:35:34.344Z,79.78
2022-09-14T05:36:09.071Z,79.73
2022-09-14T05:36:44.430Z,79.69
2022-09-14T05:37:16.662Z,79.24
2022-09-14T05:37:48.779Z,79.29
2022-09-14T05:38:23.542Z,78.99
2022-09-14T05:38:57.759Z,79.17
2022-09-14T05:39:30.038Z,79.10
2022-09-14T05:40:05.432Z,78.79
2022-09-14T05:40:37.705Z,78.71
2022-09-14T05:41:12.485Z,78.88
2022-09-14T05:41:47.342Z,78.90
2022-09-14T05:42:19.703Z,78.98
2022-09-14T05:42:52.985Z,79.22
2022-09-14T05:43:28.099Z,79.34
2022-09-14T05:44:00.503Z,79.20
2022-09-14T05:44:32.674Z,79.24
2022-09-14T05:45:08.326Z,79.16
2022-09-14T05:45:40.422Z,79.11
2022-09-14T05:46:17.066Z,79.55
2022-09-14T05:46:51.962Z,79.19
2022-09-14T05:47:24.379Z,79.08
2022-09-14T05:47:56.501Z,79.22
2022-09-14T05:48:33.950Z,79.18
2022-09-14T05:49:08.650Z,78.97
2022-09-14T05:49:43.409Z,79.28
2022-09-14T05:50:15.797Z,79.46
2022-09-14T05:50:48.018Z,79.39
2022-09-14T05:51:24.856Z,79.11
2022-09-14T05:51:57.051Z,79.03
2022-09-14T05:52:32.826Z,78.97
2022-09-14T05:53:04.998Z,78.72
2022-09-14T05:53:37.222Z,78.60
2022-09-14T05:54:12.473Z,78.70
2022-09-14T05:54:45.037Z,78.80
2022-09-14T05:55:17.295Z,79.06
2022-09-14T05:55:51.951Z,79.03
2022-09-14T05:56:25.887Z,78.63
2022-09-14T05:57:00.579Z,78.52
2022-09-14T05:57:32.695Z,78.83
2022-09-14T05:58:04.851Z,78.81
2022-09-14T05:58:40.761Z,78.87
2022-09-14T05:59:13.429Z,78.81
2022-09-14T05:59:45.591Z,79.09
2022-09-14T06:00:21.771Z,79.10
2022-09-14T06:00:54.024Z,78.94
2022-09-14T06:01:30.197Z,78.23
2022-09-14T06:02:05.049Z,78.07
2022-09-14T06:02:37.235Z,78.36
2022-09-14T06:03:09.318Z,78.13
2022-09-14T06:03:44.979Z,78.14
2022-09-14T06:04:17.169Z,78.26
2022-09-14T06:04:51.990Z,78.17
2022-09-14T06:05:25.701Z,77.99
2022-09-14T06:05:58.270Z,78.02
2022-09-14T06:06:34.903Z,78.05
2022-09-14T06:07:18.558Z,77.75
2022-09-14T06:07:52.255Z,77.54
2022-09-14T06:08:27.134Z,77.28
2022-09-14T06:08:59.725Z,77.71
2022-09-14T06:09:33.310Z,77.80
2022-09-14T06:10:09.643Z,77.75
2022-09-14T06:10:42.106Z,77.94
2022-09-14T06:11:18.663Z,77.30
2022-09-14T06:11:50.935Z,77.63
2022-09-14T06:12:27.492Z,77.58
2022-09-14T06:13:00.109Z,77.37
2022-09-14T06:13:32.538Z,77.75
2022-09-14T06:14:08.025Z,77.73
2022-09-14T06:14:40.923Z,77.14
2022-09-14T06:15:13.481Z,77.17
2022-09-14T06:15:48.166Z,77.56
2022-09-14T06:16:22.105Z,77.48
2022-09-14T06:17:00.382Z,77.58
2022-09-14T06:17:32.623Z,77.70
2022-09-14T06:18:05.026Z,77.04
2022-09-14T06:18:41.603Z,77.32
2022-09-14T06:19:15.486Z,76.74
2022-09-14T06:19:50.411Z,77.33
2022-09-14T06:20:22.837Z,76.96
2022-09-14T06:20:57.540Z,76.75
2022-09-14T06:21:31.407Z,76.79
2022-09-14T06:22:06.304Z,76.73
2022-09-14T06:22:38.394Z,76.47
2022-09-14T06:23:10.477Z,76.62
2022-09-14T06:23:45.657Z,76.42
2022-09-14T06:24:17.765Z,75.81
2022-09-14T06:24:49.854Z,75.72
2022-09-14T06:25:24.607Z,75.70
2022-09-14T06:25:57.860Z,75.89
2022-09-14T06:26:31.113Z,75.48
2022-09-14T06:27:08.997Z,75.71
2022-09-14T06:27:41.105Z,75.75
2022-09-14T06:28:13.231Z,75.44
2022-09-14T06:28:47.979Z,75.51
2022-09-14T06:29:20.082Z,75.51
2022-09-14T06:29:53.939Z,75.56
2022-09-14T06:30:29.010Z,75.11
2022-09-14T06:31:03.465Z,74.71
2022-09-14T06:31:38.235Z,75.22
2022-09-14T06:32:12.961Z,75.26
2022-09-14T06:32:45.034Z,74.95
2022-09-14T06:33:20.003Z,75.01
2022-09-14T06:33:53.165Z,74.75
2022-09-14T06:34:28.016Z,74.84
2022-09-14T06:35:00.136Z,75.12
2022-09-14T06:35:32.360Z,74.92
2022-09-14T06:36:09.958Z,74.78
2022-09-14T06:36:42.032Z,75.17
2022-09-14T06:37:16.730Z,74.82
2022-09-14T06:37:48.858Z,74.75
2022-09-14T06:38:20.945Z,74.90
2022-09-14T06:38:56.535Z,74.66
2022-09-14T06:39:28.661Z,74.66
2022-09-14T06:40:00.818Z,74.60
2022-09-14T06:40:35.607Z,74.88
2022-09-14T06:41:10.098Z,74.83
2022-09-14T06:41:44.765Z,75.04
2022-09-14T06:42:24.604Z,74.79
2022-09-14T06:43:02.449Z,74.60
2022-09-14T06:43:37.553Z,74.82
2022-09-14T06:44:12.283Z,74.44
2022-09-14T06:44:44.389Z,74.01
2022-09-14T06:45:16.624Z,74.54
2022-09-14T06:46:02.045Z,74.16
2022-09-14T06:46:34.976Z,74.23
2022-09-14T06:47:09.913Z,74.40
2022-09-14T06:47:44.591Z,74.27
2022-09-14T06:48:16.898Z,74.26
2022-09-14T06:48:53.488Z,74.09
2022-09-14T06:49:25.673Z,74.27
2022-09-14T06:49:57.940Z,74.42
2022-09-14T06:50:32.639Z,74.38
2022-09-14T06:51:12.900Z,74.00
2022-09-14T06:51:48.758Z,73.59
2022-09-14T06:52:20.943Z,73.99
2022-09-14T06:52:53.046Z,74.09
2022-09-14T06:53:27.721Z,74.07
2022-09-14T06:54:00.952Z,73.70
2022-09-14T06:54:35.637Z,73.76
2022-09-14T06:55:08.751Z,73.71
2022-09-14T06:55:40.879Z,73.81
2022-09-14T06:56:16.446Z,73.50
2022-09-14T06:56:48.619Z,73.68
2022-09-14T06:57:23.280Z,73.43
2022-09-14T06:57:55.385Z,73.44
2022-09-14T06:58:27.502Z,73.55
2022-09-14T06:59:02.614Z,73.39
2022-09-14T06:59:34.695Z,73.29
2022-09-14T07:00:12.009Z,73.43
2022-09-14T07:00:47.716Z,73.63
2022-09-14T07:01:22.434Z,73.47
2022-09-14T07:01:57.366Z,73.83
2022-09-14T07:02:29.566Z,73.44
2022-09-14T07:03:04.528Z,73.40
2022-09-14T07:03:52.966Z,73.98
2022-09-14T07:04:25.426Z,73.58
2022-09-14T07:05:00.432Z,73.40
2022-09-14T07:05:34.938Z,73.14
2022-09-14T07:06:10.707Z,73.41
2022-09-14T07:06:49.760Z,73.37
2022-09-14T07:07:22.330Z,73.27
2022-09-14T07:07:54.784Z,73.14
2022-09-14T07:08:31.491Z,73.27
2022-09-14T07:09:05.037Z,73.50
2022-09-14T07:09:41.204Z,73.44
2022-09-14T07:10:13.380Z,73.46
2022-09-14T07:10:56.418Z,73.20
2022-09-14T07:11:34.164Z,73.41
2022-09-14T07:12:06.800Z,73.76
2022-09-14T07:12:38.967Z,73.58
2022-09-14T07:13:13.630Z,73.66
2022-09-14T07:13:46.815Z,73.22
2022-09-14T07:14:22.768Z,73.05
2022-09-14T07:14:54.869Z,73.02
2022-09-14T07:15:27.074Z,73.20
2022-09-14T07:16:03.470Z,72.34
2022-09-14T07:16:37.004Z,72.65
2022-09-14T07:17:11.690Z,72.37
2022-09-14T07:17:45.083Z,72.15
2022-09-14T07:18:22.394Z,71.97
2022-09-14T07:18:57.523Z,71.86
2022-09-14T07:19:30.075Z,72.22
2022-09-14T07:20:02.811Z,71.78
2022-09-14T07:20:40.485Z,71.92
2022-09-14T07:21:15.530Z,71.28
2022-09-14T07:21:50.526Z,71.67
2022-09-14T07:22:22.742Z,71.45
2022-09-14T07:22:55.797Z,71.26
2022-09-14T07:23:30.480Z,70.88
2022-09-14T07:24:03.074Z,71.20
2022-09-14T07:24:35.177Z,70.91
2022-09-14T07:25:11.322Z,70.55
2022-09-14T07:25:43.499Z,70.97
2022-09-14T07:26:20.404Z,71.17
2022-09-14T07:26:52.537Z,70.58
2022-09-14T07:27:24.713Z,70.57
2022-09-14T07:28:00.819Z,70.60
2022-09-14T07:28:33.170Z,70.72
2022-09-14T07:29:10.724Z,70.52
2022-09-14T07:29:42.855Z,70.89
2022-09-14T07:30:15.078Z,71.12
2022-09-14T07:30:49.811Z,70.94
2022-09-14T07:31:24.872Z,70.77
2022-09-14T07:31:59.682Z,71.25
2022-09-14T07:32:31.825Z,70.83
2022-09-14T07:33:04.905Z,71.02
2022-09-14T07:33:42.142Z,71.20